Latest Weather Observations for Hay Airport

IDN60801

Issued at 9:32 am EST Friday 6 May 2016 (issued every 30 minutes, with the page automatically refreshed every 10 minutes)

About weather observations | Map of weather stations | Latest weather observations for NSW | Other Formats
Station Details ID: 075019 Name: HAY AIRPORT AWS Lat: -34.54 Lon: 144.83 Height: 92.0 m
Data from the previous 72 hours. | See also: Recent months at Hay Airport
Date/Time
EST
Temp
°C
App
Temp
°C
Dew
Point
Rel
Hum
%
Delta-T
°C
Wind Press
QNH
hPa
Press
MSL
hPa
Rain
since 9 am
mm
Dir
 
Spd
km/h
Gust
km/h
Spd
kts
Gust
kts
06/09:30am 19.5 16.9 10.8 57 4.7 N 15 20 8 11 1018.2 1018.2 0.0
06/09:00am 17.8 14.7 10.4 62 4.0 N 17 20 9 11 1018.1 1018.1 0.0
06/08:30am 16.3 13.2 10.2 67 3.2 N 17 20 9 11 1017.9 1017.9 0.0
06/08:00am 14.5 11.6 9.7 73 2.5 N 15 20 8 11 1017.8 1017.8 0.0
06/07:30am 13.3 10.4 9.7 79 1.9 N 15 20 8 11 1017.5 1017.5 0.0
06/07:00am 12.2 9.9 8.9 80 1.7 N 11 15 6 8 1017.4 1017.4 0.0
06/06:30am 12.9 10.3 9.4 79 1.8 N 13 17 7 9 1017.0 1017.0 0.0
06/06:00am 13.0 10.0 9.3 78 1.9 N 15 17 8 9 1016.9 1016.9 0.0
06/05:30am 13.3 10.0 9.4 77 2.0 N 17 20 9 11 1016.6 1016.6 0.0
06/05:00am 13.7 10.4 9.4 75 2.2 N 17 19 9 10 1016.5 1016.5 0.0
06/04:30am 14.7 11.4 9.5 71 2.7 N 17 20 9 11 1016.3 1016.3 0.0
06/04:00am 14.7 11.4 9.7 72 2.6 N 17 20 9 11 1016.3 1016.3 0.0
06/03:30am 14.6 11.3 9.4 71 2.7 N 17 20 9 11 1016.4 1016.4 0.0
06/03:00am 15.1 11.8 9.5 69 2.9 NNE 17 20 9 11 1016.5 1016.5 0.0
06/02:30am 14.9 12.0 9.5 70 2.8 NNE 15 17 8 9 1016.3 1016.3 0.0
06/02:00am 15.3 12.3 9.2 67 3.1 NNE 15 20 8 11 1016.3 1016.3 0.0
06/01:30am 16.1 12.8 9.5 65 3.4 NNE 17 20 9 11 1016.2 1016.2 0.0
06/01:00am 16.1 12.8 9.5 65 3.4 NNE 17 20 9 11 1016.4 1016.4 0.0
06/12:30am 16.3 12.5 9.7 65 3.5 NNE 20 24 11 13 1016.6 1016.6 0.0
06/12:00am 16.9 13.7 9.8 63 3.7 NNE 17 20 9 11 1016.5 1016.5 0.0
 
Date/Time
EST
Temp
°C
App
Temp
°C
Dew
Point
Rel
Hum
%
Delta-T
°C
Wind Press
QNH
hPa
Press
MSL
hPa
Rain
since 9 am
mm
Dir
 
Spd
km/h
Gust
km/h
Spd
kts
Gust
kts
05/11:30pm 17.0 13.8 9.9 63 3.8 NNE 17 20 9 11 1016.6 1016.6 0.0
05/11:00pm 17.1 14.3 10.0 63 3.8 NNE 15 19 8 10 1016.8 1016.8 0.0
05/10:30pm 17.1 14.7 10.0 63 3.8 NNE 13 17 7 9 1017.0 1017.0 0.0
05/10:00pm 17.1 14.2 9.8 62 3.8 NNE 15 19 8 10 1017.0 1017.0 0.0
05/09:30pm 17.1 14.6 9.8 62 3.9 NNE 13 15 7 8 1017.0 1017.0 0.0
05/09:00pm 17.8 15.0 9.9 60 4.2 N 15 17 8 9 1016.9 1016.9 0.0
05/08:30pm 17.9 15.0 9.8 59 4.3 NNE 15 17 8 9 1016.7 1016.7 0.0
05/08:00pm 18.2 15.3 9.5 57 4.6 NNE 15 19 8 10 1016.5 1016.5 0.0
05/07:30pm 18.7 15.5 10.0 57 4.7 NNE 17 20 9 11 1016.3 1016.3 0.0
05/07:00pm 17.9 15.4 9.8 59 4.3 NNE 13 17 7 9 1016.1 1016.1 0.0
05/06:30pm 18.4 15.8 9.5 56 4.7 NNE 13 15 7 8 1015.9 1015.9 0.0
05/06:00pm 19.4 17.2 9.3 52 5.3 N 11 13 6 7 1015.7 1015.7 0.0
05/05:30pm 21.3 18.3 9.2 46 6.5 N 15 17 8 9 1015.4 1015.4 0.0
05/05:00pm 22.2 18.8 9.0 43 7.1 N 17 20 9 11 1015.4 1015.4 0.0
05/04:30pm 23.4 19.6 9.0 40 7.8 N 19 26 10 14 1015.5 1015.5 0.0
05/04:00pm 24.0 19.9 8.8 38 8.2 NNW 20 30 11 16 1015.7 1015.7 0.0
05/03:30pm 23.8 19.7 8.6 38 8.2 N 20 28 11 15 1015.8 1015.8 0.0
05/03:00pm 23.9 19.8 8.7 38 8.2 N 20 28 11 15 1015.9 1015.9 0.0
05/02:30pm 23.8 19.3 8.6 38 8.2 N 22 32 12 17 1016.2 1016.2 0.0
05/02:00pm 23.3 19.8 8.6 39 7.9 N 17 26 9 14 1016.4 1016.4 0.0
05/01:30pm 23.0 18.8 8.3 39 7.8 N 20 32 11 17 1016.8 1016.8 0.0
05/01:00pm 23.0 18.9 8.7 40 7.6 N 20 32 11 17 1017.3 1017.3 0.0
05/12:30pm 22.5 18.0 8.6 41 7.4 N 22 28 12 15 1017.9 1017.9 0.0
05/12:00pm 22.5 18.0 8.6 41 7.4 N 22 32 12 17 1018.4 1018.4 0.0
05/11:30am 21.8 16.9 8.3 42 7.1 N 24 30 13 16 1019.0 1019.0 0.0
05/11:00am 21.1 16.2 8.4 44 6.7 N 24 32 13 17 1019.5 1019.5 0.0
05/10:30am 20.4 15.4 8.1 45 6.4 NNE 24 32 13 17 1020.0 1020.0 0.0
05/10:00am 19.1 14.9 8.1 49 5.7 NNE 20 26 11 14 1020.3 1020.3 0.0
05/09:30am 17.8 13.6 8.1 53 5.0 NNE 20 24 11 13 1020.2 1020.2 0.0
05/09:00am 16.2 12.2 8.2 59 4.1 NNE 19 22 10 12 1020.1 1020.1 0.0
05/08:30am 14.6 10.4 7.6 63 3.5 NNE 19 24 10 13 1020.1 1020.1 0.0
05/08:00am 13.6 9.5 7.8 68 2.9 NNE 19 20 10 11 1019.9 1019.9 0.0
05/07:30am 12.2 8.5 7.9 75 2.1 NNE 17 20 9 11 1019.5 1019.5 0.0
05/07:00am 11.7 8.3 7.8 77 1.9 NNE 15 20 8 11 1019.2 1019.2 0.0
05/06:30am 11.8 8.0 7.7 76 2.0 NNE 17 20 9 11 1019.0 1019.0 0.0
05/06:00am 12.0 8.7 7.9 76 2.0 NNE 15 19 8 10 1018.8 1018.8 0.0
05/05:30am 12.4 9.2 8.3 76 2.0 NNE 15 17 8 9 1018.8 1018.8 0.0
05/05:00am 12.9 10.1 8.4 74 2.2 NE 13 17 7 9 1018.6 1018.6 0.0
05/04:30am 13.4 10.3 8.9 74 2.3 NNE 15 17 8 9 1018.6 1018.6 0.0
05/04:00am 13.9 11.1 8.7 71 2.6 NE 13 15 7 8 1018.4 1018.4 0.0
05/03:30am 14.9 12.9 8.8 67 3.1 NNE 9 11 5 6 1018.7 1018.7 0.0
05/03:00am 15.4 12.6 8.6 64 3.5 NNE 13 15 7 8 1018.6 1018.6 0.0
05/02:30am 15.8 13.4 8.5 62 3.7 NNE 11 13 6 7 1018.9 1018.9 0.0
05/02:00am 16.0 13.5 8.2 60 4.0 NNE 11 13 6 7 1018.8 1018.8 0.0
05/01:30am 16.1 13.6 8.3 60 4.0 NNE 11 13 6 7 1018.9 1018.9 0.0
05/01:00am 16.1 13.7 8.6 61 3.8 NNE 11 17 6 9 1019.0 1019.0 0.0
05/12:30am 16.0 14.1 9.0 63 3.6 N 9 13 5 7 1019.1 1019.1 0.0
05/12:00am 16.3 13.9 8.5 60 4.0 NNE 11 13 6 7 1019.1 1019.1 0.0
 
Date/Time
EST
Temp
°C
App
Temp
°C
Dew
Point
Rel
Hum
%
Delta-T
°C
Wind Press
QNH
hPa
Press
MSL
hPa
Rain
since 9 am
mm
Dir
 
Spd
km/h
Gust
km/h
Spd
kts
Gust
kts
04/11:30pm 16.4 14.4 8.6 60 4.0 N 9 13 5 7 1019.2 1019.2 0.0
04/11:00pm 16.4 14.4 8.6 60 4.0 N 9 11 5 6 1019.3 1019.3 0.0
04/10:30pm 16.2 14.3 8.9 62 3.8 N 9 11 5 6 1019.3 1019.3 0.0
04/10:00pm 15.7 14.9 9.6 67 3.2 NNE 4 9 2 5 1019.4 1019.4 0.0
04/09:30pm 15.8 14.8 9.0 64 3.5 NNE 4 6 2 3 1019.2 1019.2 0.0
04/09:00pm 15.8 14.3 8.5 62 3.7 NNE 6 7 3 4 1019.0 1019.0 0.0
04/08:30pm 16.2 14.5 8.4 60 4.0 N 7 9 4 5 1019.0 1019.0 0.0
04/08:00pm 16.6 14.9 8.3 58 4.2 N 7 11 4 6 1018.9 1018.9 0.0
04/07:30pm 16.2 15.9 8.7 61 3.9 CALM 0 0 0 0 1018.7 1018.7 0.0
04/07:00pm 16.8 15.6 8.0 56 4.5 NNE 4 6 2 3 1018.6 1018.6 0.0
04/06:30pm 16.7 16.3 8.1 57 4.4 CALM 0 0 0 0 1018.2 1018.2 0.0
04/06:00pm 17.3 16.6 7.1 51 5.1 CALM 0 4 0 2 1017.9 1017.9 0.0
04/05:30pm 17.7 15.6 6.6 48 5.5 NNW 7 9 4 5 1017.7 1017.7 0.0
04/05:00pm 18.1 15.2 6.3 46 5.8 NW 11 15 6 8 1017.4 1017.4 0.0
04/04:30pm 18.7 16.1 5.9 43 6.3 WNW 9 15 5 8 1017.2 1017.2 0.0
04/04:00pm 18.8 15.9 6.3 44 6.2 WNW 11 17 6 9 1017.1 1017.1 0.0
04/03:30pm 18.7 16.1 6.2 44 6.2 W 9 17 5 9 1017.0 1017.0 0.0
04/03:00pm 19.2 15.6 6.7 44 6.3 W 15 20 8 11 1017.0 1017.0 0.0
04/02:30pm 18.4 14.7 6.3 45 6.0 W 15 20 8 11 1016.9 1016.9 0.0
04/02:00pm 20.1 17.3 7.1 43 6.6 W 11 17 6 9 1017.0 1017.0 0.0
04/01:30pm 19.2 15.9 6.3 43 6.4 NW 13 20 7 11 1017.2 1017.2 0.0
04/01:00pm 18.6 15.3 6.4 45 6.1 NW 13 22 7 12 1017.4 1017.4 0.0
04/12:30pm 18.6 16.4 6.1 44 6.2 WSW 7 19 4 10 1017.8 1017.8 0.0
04/12:00pm 17.9 14.9 6.1 46 5.8 NW 11 19 6 10 1018.2 1018.2 0.0
04/11:30am 17.0 13.6 5.9 48 5.4 W 13 17 7 9 1018.5 1018.5 0.0
04/11:00am 16.5 13.5 5.8 49 5.2 W 11 17 6 9 1018.7 1018.7 0.0
04/10:30am 16.0 13.5 6.4 53 4.7 WSW 9 13 5 7 1018.8 1018.8 0.0
04/10:00am 15.0 13.2 9.4 69 2.9 SW 9 13 5 7 1018.8 1018.8 0.0
04/09:30am 14.2 12.5 10.0 76 2.2 W 9 13 5 7 1018.7 1018.7 0.0
04/09:00am 13.1 11.7 10.8 86 1.2 W 9 11 5 6 1018.5 1018.5 -
04/08:30am 12.1 11.1 11.0 93 0.6 W 7 11 4 6 1018.2 1018.2 -
04/08:00am 10.8 9.7 10.6 99 0.1 NW 7 7 4 4 1017.7 1017.7 -
04/07:30am 9.1 7.6 9.0 99 0.0 WNW 7 11 4 6 1017.1 1017.1 -
04/07:00am 9.4 7.6 9.3 99 0.0 W 9 11 5 6 1016.5 1016.5 -
04/06:30am 9.6 7.8 9.5 99 0.0 W 9 11 5 6 1016.1 1016.1 -
04/06:00am 9.9 7.8 9.8 99 0.1 W 11 13 6 7 1015.7 1015.7 -
04/05:30am 9.6 7.4 9.5 99 0.0 WNW 11 13 6 7 1015.2 1015.2 -
04/05:00am 8.7 6.6 8.1 96 0.3 WNW 9 11 5 6 1014.9 1014.9 -
04/04:30am 10.2 8.5 9.7 97 0.3 WNW 9 11 5 6 1014.5 1014.5 -
04/04:00am 10.7 8.8 10.4 98 0.2 W 11 13 6 7 1014.3 1014.3 -
04/03:30am 11.0 9.4 10.2 95 0.4 W 9 11 5 6 1014.2 1014.2 -
04/03:00am 11.7 10.1 10.3 91 0.7 WSW 9 13 5 7 1014.0 1014.0 0.0
04/02:30am 12.8 10.7 11.0 89 0.9 WSW 13 17 7 9 1013.9 1013.9 -
04/02:00am 13.3 11.3 11.4 88 1.0 SW 13 17 7 9 1013.7 1013.7 -
04/01:30am 13.7 10.9 11.4 86 1.2 SW 17 20 9 11 1013.4 1013.4 -
04/01:00am 13.8 10.6 11.3 85 1.3 WSW 19 20 10 11 1013.3 1013.3 -
04/12:30am 14.1 10.7 11.4 84 1.4 WSW 20 28 11 15 1013.2 1013.2 -
04/12:00am 14.3 10.0 12.2 87 1.1 SW 26 33 14 18 1013.0 1013.0 -
 
Date/Time
EST
Temp
°C
App
Temp
°C
Dew
Point
Rel
Hum
%
Delta-T
°C
Wind Press
QNH
hPa
Press
MSL
hPa
Rain
since 9 am
mm
Dir
 
Spd
km/h
Gust
km/h
Spd
kts
Gust
kts
03/11:30pm 14.7 9.2 11.8 83 1.6 SW 32 44 17 24 1012.6 1012.6 -
03/11:00pm 16.5 11.0 12.5 77 2.2 W 33 44 18 24 1012.2 1012.2 -
03/10:51pm 16.7 13.0 12.7 77 2.2 W 24 41 13 22 1012.1 1012.1 -
03/10:30pm 15.2 14.0 11.6 79 1.9 NW 9 15 5 8 1011.8 1011.7 -
03/10:00pm 15.4 14.3 11.8 79 2.0 W 9 13 5 7 1011.6 1011.5 -
03/09:30pm 15.5 15.9 11.3 76 2.3 CALM 0 0 0 0 1010.9 1010.9 -
03/09:00pm 16.5 16.0 11.9 74 2.5 WSW 6 6 3 3 1010.7 1010.7 0.0
03/08:30pm 16.7 15.2 11.8 73 2.7 SW 11 15 6 8 1010.5 1010.5 -
03/08:00pm 16.6 14.2 11.5 72 2.8 SW 15 20 8 11 1010.2 1010.2 -
03/07:30pm 17.5 14.4 11.5 68 3.3 SW 19 24 10 13 1009.8 1009.8 -
03/07:00pm 20.3 16.7 8.3 46 6.3 WNW 17 20 9 11 1009.0 1009.0 -
03/06:30pm 20.5 16.9 8.2 45 6.4 WNW 17 20 9 11 1008.4 1008.4 -
03/06:00pm 20.9 16.2 7.9 43 6.8 WNW 22 30 12 16 1007.9 1007.9 -
03/05:30pm 21.7 15.4 7.2 39 7.5 WNW 30 41 16 22 1007.9 1007.9 -
03/05:00pm 22.0 14.3 5.4 34 8.3 WNW 35 46 19 25 1007.4 1007.4 -
03/04:30pm 22.9 15.4 4.4 30 9.1 NW 33 44 18 24 1007.0 1007.0 -
03/04:00pm 23.2 14.5 4.2 29 9.4 WNW 39 50 21 27 1006.8 1006.8 -
03/03:30pm 23.5 14.4 4.0 28 9.6 NW 41 54 22 29 1006.6 1006.6 -
03/03:00pm 23.7 14.9 3.6 27 9.9 NW 39 52 21 28 1006.6 1006.6 0.2
03/02:30pm 23.9 14.8 3.8 27 9.9 NW 41 56 22 30 1006.8 1006.8 -
03/02:01pm 23.8 15.7 3.2 26 10.0 NW 35 54 19 29 1006.9 1006.9 -
03/02:00pm 23.9 15.9 3.8 27 9.9 NW 35 50 19 27 1006.9 1006.9 -
03/01:30pm 23.2 13.5 3.7 28 9.5 NW 44 59 24 32 1007.5 1007.5 -
03/01:14pm 23.2 14.1 4.2 29 9.4 NW 41 63 22 34 1007.6 1007.6 -
03/01:00pm 23.2 14.2 4.7 30 9.2 NW 41 57 22 31 1007.8 1007.8 -
03/12:30pm 22.9 13.4 3.9 29 9.3 NNW 43 56 23 30 1008.1 1008.1 -
03/12:00pm 22.2 14.2 5.6 34 8.4 NNW 37 50 20 27 1008.7 1008.7 -
03/11:30am 21.5 13.8 5.4 35 8.0 NNW 35 50 19 27 1009.4 1009.4 -
03/11:00am 20.7 13.6 5.5 37 7.6 NNW 32 43 17 23 1009.8 1009.8 -
03/10:30am 19.3 12.6 5.7 41 6.7 NNW 30 39 16 21 1010.3 1010.3 -
03/10:00am 18.4 12.4 6.9 47 5.8 NNW 28 39 15 21 1010.6 1010.6 -

Other Formats:

Comma delimited format used in spreadsheet applications
http://www.bom.gov.au/fwo/IDN60801/IDN60801.94702.axf

JavaScript Object Notation format (JSON) in row-major order
http://www.bom.gov.au/fwo/IDN60801/IDN60801.94702.json